Time;durP1;ratioP1;P1;durP2;ratioP2;P2;SDS_P1;SDS_P2;PMS_P1;PMS_P2;Temp;Humidity;BMP_temperature;BMP_pressure;BME280_temperature;BME280_humidity;BME280_pressure;Samples;Min_cycle;Max_cycle;Signal;HPM_P1;HPM_P2
2023/05/28 00:00:57;;;;;;;;;;;18.40;66.00;;;;;;5012847;28;87402;-46
2023/05/28 00:03:23;;;;;;;;;;;18.40;66.00;;;;;;5012394;28;87216;-47
2023/05/28 00:05:49;;;;;;;;;;;18.40;66.00;;;;;;5014273;28;87181;-51
2023/05/28 00:08:15;;;;;;;;;;;18.40;66.00;;;;;;5012147;28;87258;-46
2023/05/28 00:10:41;;;;;;;;;;;18.40;66.00;;;;;;5016547;28;89072;-49
2023/05/28 00:13:06;;;;;;;;;;;18.30;66.10;;;;;;5011290;28;87559;-46
2023/05/28 00:15:32;;;;;;;;;;;18.30;66.20;;;;;;5013962;28;88031;-49
2023/05/28 00:17:57;;;;;;;;;;;18.30;66.20;;;;;;5012067;28;87142;-49
2023/05/28 00:20:25;;;;;;;;;;;18.40;66.10;;;;;;5012728;28;87685;-46
2023/05/28 00:22:51;;;;;;;;;;;18.30;66.00;;;;;;5013602;28;88703;-47
2023/05/28 00:25:16;;;;;;;;;;;18.30;66.00;;;;;;5013097;28;87149;-48
2023/05/28 00:27:42;;;;;;;;;;;18.30;66.10;;;;;;5011858;28;87556;-48
2023/05/28 00:30:07;;;;;;;;;;;18.30;66.10;;;;;;5011784;28;88175;-47
2023/05/28 00:32:33;;;;;;;;;;;18.30;66.10;;;;;;5017007;28;87212;-46
2023/05/28 00:34:58;;;;;;;;;;;18.30;66.20;;;;;;5010477;28;89188;-50
2023/05/28 00:37:24;;;;;;;;;;;18.30;66.10;;;;;;5012692;28;87159;-49
2023/05/28 00:39:50;;;;;;;;;;;18.30;66.10;;;;;;5013062;28;87599;-46
2023/05/28 00:42:15;;;;;;;;;;;18.20;66.10;;;;;;5013666;28;87837;-48
2023/05/28 00:44:42;;;;;;;;;;;18.20;66.10;;;;;;5011939;28;87141;-49
2023/05/28 00:47:08;;;;;;;;;;;18.20;66.20;;;;;;5011963;28;87754;-48
2023/05/28 00:49:34;;;;;;;;;;;18.20;66.30;;;;;;5013340;28;87115;-46
2023/05/28 00:52:00;;;;;;;;;;;18.10;66.30;;;;;;5011762;28;86354;-48
2023/05/28 00:54:26;;;;;;;;;;;18.20;66.40;;;;;;5016581;28;87096;-49
2023/05/28 00:56:57;;;;;;;;;;;18.20;66.40;;;;;;5011093;28;87180;-47
2023/05/28 00:59:23;;;;;;;;;;;18.20;66.40;;;;;;5010335;28;88030;-46
2023/05/28 01:01:49;;;;;;;;;;;18.20;66.30;;;;;;5011891;28;87948;-48
2023/05/28 01:04:15;;;;;;;;;;;18.20;66.40;;;;;;5013325;28;87210;-47
2023/05/28 01:06:42;;;;;;;;;;;18.10;66.40;;;;;;5010562;28;87119;-51
2023/05/28 01:09:07;;;;;;;;;;;18.10;66.30;;;;;;5012325;28;88218;-47
2023/05/28 01:11:33;;;;;;;;;;;18.10;66.40;;;;;;5011898;28;87093;-49
2023/05/28 01:13:59;;;;;;;;;;;18.10;66.30;;;;;;5012495;28;87332;-47
2023/05/28 01:16:28;;;;;;;;;;;18.10;66.30;;;;;;5013710;28;86471;-46
2023/05/28 01:18:55;;;;;;;;;;;18.10;66.30;;;;;;5012336;28;87295;-48
2023/05/28 01:21:22;;;;;;;;;;;18.10;66.30;;;;;;5009893;28;88139;-48
2023/05/28 01:23:48;;;;;;;;;;;18.10;66.30;;;;;;5012400;28;88065;-50
2023/05/28 01:26:14;;;;;;;;;;;18.10;66.30;;;;;;5012130;28;88265;-51
2023/05/28 01:28:44;;;;;;;;;;;18.00;66.40;;;;;;5012353;28;88174;-48
2023/05/28 01:31:16;;;;;;;;;;;18.10;66.50;;;;;;5010508;28;87161;-48
2023/05/28 01:33:42;;;;;;;;;;;18.10;66.40;;;;;;5011306;28;87363;-51
2023/05/28 01:36:28;;;;;;;;;;;18.10;66.40;;;;;;5015712;28;88104;-49
2023/05/28 01:38:58;;;;;;;;;;;18.00;66.40;;;;;;4996170;28;90522;-48
2023/05/28 01:41:25;;;;;;;;;;;18.00;66.50;;;;;;5015110;28;87504;-46
2023/05/28 01:43:52;;;;;;;;;;;18.00;66.50;;;;;;5016026;28;87306;-46
2023/05/28 01:46:18;;;;;;;;;;;18.00;66.50;;;;;;5013755;28;87183;-48
2023/05/28 01:48:44;;;;;;;;;;;18.00;66.50;;;;;;5014975;28;89091;-49
2023/05/28 01:51:10;;;;;;;;;;;17.90;66.60;;;;;;5015593;28;87083;-46
2023/05/28 01:53:35;;;;;;;;;;;18.00;66.50;;;;;;5013405;28;87367;-47
2023/05/28 01:56:01;;;;;;;;;;;17.90;66.40;;;;;;5015410;28;88170;-46
2023/05/28 01:58:27;;;;;;;;;;;18.00;66.50;;;;;;5017969;28;87350;-49
2023/05/28 02:01:05;;;;;;;;;;;17.90;66.40;;;;;;5015434;28;87145;-46
2023/05/28 02:03:30;;;;;;;;;;;17.90;66.60;;;;;;5014715;28;87155;-47
2023/05/28 02:05:56;;;;;;;;;;;17.90;66.60;;;;;;5014626;28;87570;-46
2023/05/28 02:08:21;;;;;;;;;;;17.90;66.60;;;;;;5015967;28;88631;-46
2023/05/28 02:10:47;;;;;;;;;;;17.90;66.60;;;;;;5014739;28;87091;-47
2023/05/28 02:13:12;;;;;;;;;;;17.90;66.50;;;;;;5013243;28;88122;-46
2023/05/28 02:15:38;;;;;;;;;;;17.90;66.50;;;;;;5013535;28;88194;-48
2023/05/28 02:18:03;;;;;;;;;;;17.90;66.60;;;;;;5016121;28;87706;-49
2023/05/28 02:20:29;;;;;;;;;;;17.90;66.60;;;;;;5016583;28;87509;-49
2023/05/28 02:22:54;;;;;;;;;;;17.90;66.50;;;;;;5014503;28;87171;-46
2023/05/28 02:25:20;;;;;;;;;;;17.90;66.60;;;;;;5015685;28;87072;-50
2023/05/28 02:27:47;;;;;;;;;;;17.80;66.60;;;;;;5013920;28;88289;-50
2023/05/28 02:30:14;;;;;;;;;;;17.80;66.50;;;;;;5014760;28;87156;-48
2023/05/28 02:32:39;;;;;;;;;;;17.80;66.60;;;;;;5013741;28;87049;-49
2023/05/28 02:35:06;;;;;;;;;;;17.80;66.60;;;;;;5015445;28;87991;-46
2023/05/28 02:37:31;;;;;;;;;;;17.80;66.60;;;;;;5013086;28;88054;-47
2023/05/28 02:39:57;;;;;;;;;;;17.80;66.60;;;;;;5014206;28;88490;-48
2023/05/28 02:42:22;;;;;;;;;;;17.80;66.60;;;;;;5015758;28;88200;-48
2023/05/28 02:44:48;;;;;;;;;;;17.80;66.70;;;;;;5013118;28;87628;-48
2023/05/28 02:47:13;;;;;;;;;;;17.80;66.70;;;;;;5014525;28;87963;-46
2023/05/28 02:49:39;;;;;;;;;;;17.80;66.60;;;;;;5014466;28;87072;-50
2023/05/28 02:52:04;;;;;;;;;;;17.80;66.60;;;;;;5012336;28;87275;-50
2023/05/28 02:54:30;;;;;;;;;;;17.80;66.60;;;;;;5015696;28;88275;-45
2023/05/28 02:56:55;;;;;;;;;;;17.80;66.60;;;;;;5012805;28;87463;-47
2023/05/28 02:59:21;;;;;;;;;;;17.80;66.70;;;;;;5013652;28;87160;-47
2023/05/28 03:01:46;;;;;;;;;;;17.70;66.60;;;;;;5014430;28;89084;-47
2023/05/28 03:04:12;;;;;;;;;;;17.80;66.60;;;;;;5015623;28;87147;-50
2023/05/28 03:06:38;;;;;;;;;;;17.70;66.60;;;;;;5013792;28;88006;-49
2023/05/28 03:09:04;;;;;;;;;;;17.70;66.70;;;;;;5014913;28;87043;-48
2023/05/28 03:11:29;;;;;;;;;;;17.70;66.80;;;;;;5013506;28;87429;-51
2023/05/28 03:13:55;;;;;;;;;;;17.70;66.70;;;;;;5012083;28;88095;-47
2023/05/28 03:16:21;;;;;;;;;;;17.70;66.80;;;;;;5013809;28;87151;-46
2023/05/28 03:18:47;;;;;;;;;;;17.70;66.60;;;;;;5015557;28;87345;-47
2023/05/28 03:21:12;;;;;;;;;;;17.70;66.70;;;;;;5011948;28;88237;-46
2023/05/28 03:23:38;;;;;;;;;;;17.70;66.70;;;;;;5017195;28;87150;-48
2023/05/28 03:26:03;;;;;;;;;;;17.70;66.80;;;;;;5013241;28;89105;-51
2023/05/28 03:28:29;;;;;;;;;;;17.70;66.80;;;;;;5013044;28;87067;-48
2023/05/28 03:30:55;;;;;;;;;;;17.60;66.70;;;;;;5012625;28;87071;-48
2023/05/28 03:33:21;;;;;;;;;;;17.60;66.80;;;;;;5013476;28;87136;-49
2023/05/28 03:35:46;;;;;;;;;;;17.60;66.80;;;;;;5014523;28;87158;-51
2023/05/28 03:38:12;;;;;;;;;;;17.60;66.70;;;;;;4993716;28;88204;-48
2023/05/28 03:40:37;;;;;;;;;;;17.60;66.70;;;;;;5014224;28;88203;-48
2023/05/28 03:43:04;;;;;;;;;;;17.60;66.70;;;;;;5012957;28;86489;-46
2023/05/28 03:45:30;;;;;;;;;;;17.60;66.80;;;;;;5017342;28;87144;-49
2023/05/28 03:47:55;;;;;;;;;;;17.60;66.80;;;;;;5011701;28;87209;-47
2023/05/28 03:50:21;;;;;;;;;;;17.60;66.80;;;;;;5013508;28;88136;-48
2023/05/28 03:52:46;;;;;;;;;;;17.60;66.80;;;;;;5013270;28;88080;-49
2023/05/28 03:55:12;;;;;;;;;;;17.60;66.70;;;;;;5011869;28;87196;-47
2023/05/28 03:57:37;;;;;;;;;;;17.60;66.80;;;;;;5013331;28;87550;-47
2023/05/28 04:00:03;;;;;;;;;;;17.50;66.80;;;;;;5013014;28;87960;-47
2023/05/28 04:02:29;;;;;;;;;;;17.50;66.80;;;;;;5014005;28;87251;-50
2023/05/28 04:04:55;;;;;;;;;;;17.60;66.80;;;;;;5011468;28;87142;-52
2023/05/28 04:07:20;;;;;;;;;;;17.50;66.80;;;;;;5016922;28;87209;-49
2023/05/28 04:09:46;;;;;;;;;;;17.50;66.70;;;;;;5013311;28;87074;-48
2023/05/28 04:12:12;;;;;;;;;;;17.50;66.80;;;;;;5012965;28;88178;-49
2023/05/28 04:14:39;;;;;;;;;;;17.50;66.90;;;;;;5012575;28;88384;-48
2023/05/28 04:17:05;;;;;;;;;;;17.50;66.90;;;;;;5012436;28;88389;-48
2023/05/28 04:19:30;;;;;;;;;;;17.50;66.80;;;;;;5011910;28;87989;-48
2023/05/28 04:21:56;;;;;;;;;;;17.50;66.90;;;;;;5014095;28;87138;-48
2023/05/28 04:24:21;;;;;;;;;;;17.50;67.40;;;;;;5011611;28;87604;-51
2023/05/28 04:26:47;;;;;;;;;;;17.50;66.70;;;;;;5012158;28;88198;-48
2023/05/28 04:29:15;;;;;;;;;;;17.50;66.70;;;;;;5016361;28;86953;-49
2023/05/28 04:31:40;;;;;;;;;;;17.50;66.70;;;;;;5014109;28;87380;-48
2023/05/28 04:34:06;;;;;;;;;;;17.50;66.80;;;;;;5011957;28;87146;-47
2023/05/28 04:36:33;;;;;;;;;;;17.50;66.80;;;;;;5012351;28;87470;-49
2023/05/28 04:39:01;;;;;;;;;;;17.50;66.80;;;;;;5012957;28;89084;-46
2023/05/28 04:41:26;;;;;;;;;;;17.50;66.80;;;;;;5011351;28;88168;-51
2023/05/28 04:43:52;;;;;;;;;;;17.50;66.90;;;;;;5014189;28;87621;-46
2023/05/28 04:46:18;;;;;;;;;;;17.50;66.90;;;;;;5010864;28;88183;-46
2023/05/28 04:48:43;;;;;;;;;;;17.50;67.00;;;;;;5014074;28;87433;-48
2023/05/28 04:51:09;;;;;;;;;;;17.40;66.90;;;;;;5014479;28;87408;-51
2023/05/28 04:53:34;;;;;;;;;;;17.50;66.90;;;;;;5011973;28;87110;-47
2023/05/28 04:56:00;;;;;;;;;;;17.50;66.90;;;;;;5013962;28;87556;-48
2023/05/28 04:58:26;;;;;;;;;;;17.40;66.90;;;;;;5012675;28;88034;-51
2023/05/28 05:00:52;;;;;;;;;;;17.40;67.00;;;;;;5009728;28;87203;-46
2023/05/28 05:03:18;;;;;;;;;;;17.40;67.00;;;;;;5012275;28;88001;-49
2023/05/28 05:05:43;;;;;;;;;;;17.40;67.00;;;;;;5010259;28;88503;-50
2023/05/28 05:08:11;;;;;;;;;;;17.40;67.00;;;;;;5013047;28;87056;-48
2023/05/28 05:10:37;;;;;;;;;;;17.40;66.90;;;;;;5014921;28;87371;-48
2023/05/28 05:13:03;;;;;;;;;;;17.50;67.00;;;;;;5010721;28;87113;-48
2023/05/28 05:15:28;;;;;;;;;;;17.40;67.00;;;;;;5012297;28;87095;-49
2023/05/28 05:17:54;;;;;;;;;;;17.50;67.00;;;;;;5011390;28;88273;-49
2023/05/28 05:20:19;;;;;;;;;;;17.50;67.50;;;;;;5011865;28;86152;-47
2023/05/28 05:22:45;;;;;;;;;;;17.50;66.90;;;;;;5013309;28;88269;-47
2023/05/28 05:25:10;;;;;;;;;;;17.50;66.90;;;;;;5010471;28;87337;-48
2023/05/28 05:27:36;;;;;;;;;;;17.50;67.00;;;;;;5010996;28;88176;-47
2023/05/28 05:30:03;;;;;;;;;;;17.50;67.20;;;;;;5011827;28;87283;-48
2023/05/28 05:32:28;;;;;;;;;;;17.40;67.20;;;;;;5015813;28;88266;-47
2023/05/28 05:34:54;;;;;;;;;;;17.40;67.90;;;;;;5011033;28;87508;-46
2023/05/28 05:37:20;;;;;;;;;;;17.50;67.30;;;;;;5011052;28;88111;-49
2023/05/28 05:39:46;;;;;;;;;;;17.50;67.30;;;;;;5013037;28;87246;-48
2023/05/28 05:42:11;;;;;;;;;;;17.50;67.40;;;;;;5009907;28;87617;-48
2023/05/28 05:44:37;;;;;;;;;;;17.40;67.30;;;;;;5013560;28;87332;-47
2023/05/28 05:47:02;;;;;;;;;;;17.40;67.80;;;;;;5011355;28;87058;-48
2023/05/28 05:49:28;;;;;;;;;;;17.40;67.40;;;;;;5013017;28;87531;-48
2023/05/28 05:51:53;;;;;;;;;;;17.40;67.40;;;;;;5009146;28;89200;-48
2023/05/28 05:54:19;;;;;;;;;;;17.50;67.40;;;;;;5014594;28;87143;-48
2023/05/28 05:56:44;;;;;;;;;;;17.50;67.60;;;;;;5011465;28;88142;-48
2023/05/28 05:59:10;;;;;;;;;;;17.40;67.50;;;;;;5012750;28;87133;-48
2023/05/28 06:01:36;;;;;;;;;;;17.40;67.70;;;;;;5010567;28;87330;-48
2023/05/28 06:04:01;;;;;;;;;;;17.50;67.60;;;;;;5011098;28;87994;-49
2023/05/28 06:06:27;;;;;;;;;;;17.50;67.60;;;;;;5012586;28;87153;-46
2023/05/28 06:08:52;;;;;;;;;;;17.50;67.70;;;;;;5009871;28;87467;-46
2023/05/28 06:11:18;;;;;;;;;;;17.50;67.90;;;;;;5011654;28;87971;-48
2023/05/28 06:13:43;;;;;;;;;;;17.50;67.80;;;;;;4989398;28;87205;-47
2023/05/28 06:16:10;;;;;;;;;;;17.50;67.80;;;;;;4995269;28;88110;-48
2023/05/28 06:18:36;;;;;;;;;;;17.50;67.80;;;;;;4990149;28;87170;-51
2023/05/28 06:21:03;;;;;;;;;;;17.50;67.90;;;;;;4991694;28;87353;-49
2023/05/28 06:23:29;;;;;;;;;;;17.50;67.90;;;;;;4991805;28;88008;-46
2023/05/28 06:25:54;;;;;;;;;;;17.50;67.90;;;;;;4990464;28;87200;-48
2023/05/28 06:28:20;;;;;;;;;;;17.50;67.90;;;;;;4995183;28;87642;-49
2023/05/28 06:30:45;;;;;;;;;;;17.50;67.90;;;;;;4995151;28;87873;-46
2023/05/28 06:33:11;;;;;;;;;;;17.50;68.10;;;;;;4996114;28;86356;-45
2023/05/28 06:35:36;;;;;;;;;;;17.50;68.10;;;;;;4993290;28;87104;-49
2023/05/28 06:38:02;;;;;;;;;;;17.50;68.20;;;;;;4997671;28;88213;-45
2023/05/28 06:40:27;;;;;;;;;;;17.50;68.20;;;;;;4994359;28;88044;-48
2023/05/28 06:42:53;;;;;;;;;;;17.50;68.30;;;;;;4992452;28;87996;-51
2023/05/28 06:45:19;;;;;;;;;;;17.50;68.20;;;;;;4996272;28;87173;-46
2023/05/28 06:47:45;;;;;;;;;;;17.50;68.10;;;;;;4994680;28;87414;-47
2023/05/28 06:50:11;;;;;;;;;;;17.50;68.10;;;;;;4994824;28;87991;-47
2023/05/28 06:52:37;;;;;;;;;;;17.50;68.30;;;;;;4992782;28;87202;-52
2023/05/28 06:55:02;;;;;;;;;;;17.50;68.20;;;;;;4995255;28;87492;-47
2023/05/28 06:57:28;;;;;;;;;;;17.50;68.30;;;;;;4994352;28;87424;-46
2023/05/28 06:59:53;;;;;;;;;;;17.50;68.30;;;;;;4998663;28;87090;-47
2023/05/28 07:02:19;;;;;;;;;;;17.40;68.40;;;;;;4991996;28;87249;-47
2023/05/28 07:04:44;;;;;;;;;;;17.40;68.40;;;;;;4994021;28;88124;-48
2023/05/28 07:07:10;;;;;;;;;;;17.40;68.40;;;;;;4994357;28;88448;-49
2023/05/28 07:09:36;;;;;;;;;;;17.40;68.30;;;;;;4992141;28;88209;-51
2023/05/28 07:12:01;;;;;;;;;;;17.40;68.40;;;;;;4995273;28;87277;-47
2023/05/28 07:14:27;;;;;;;;;;;17.40;68.40;;;;;;5010789;28;87364;-49
2023/05/28 07:16:52;;;;;;;;;;;17.40;68.50;;;;;;5015305;28;88375;-45
2023/05/28 07:19:18;;;;;;;;;;;17.40;68.50;;;;;;5015244;28;87144;-49
2023/05/28 07:21:45;;;;;;;;;;;17.40;68.50;;;;;;5015292;28;87538;-46
2023/05/28 07:24:10;;;;;;;;;;;17.40;68.80;;;;;;5013864;28;87197;-48
2023/05/28 07:26:36;;;;;;;;;;;17.40;68.40;;;;;;5012755;28;87301;-47
2023/05/28 07:29:01;;;;;;;;;;;17.40;68.50;;;;;;5014139;28;88847;-48
2023/05/28 07:31:28;;;;;;;;;;;17.40;68.50;;;;;;4996318;28;87379;-49
2023/05/28 07:33:53;;;;;;;;;;;17.40;68.40;;;;;;5014108;28;87053;-46
2023/05/28 07:36:19;;;;;;;;;;;17.40;68.50;;;;;;5011226;28;88600;-47
2023/05/28 07:38:44;;;;;;;;;;;17.40;68.40;;;;;;5014727;28;87085;-50
2023/05/28 07:41:10;;;;;;;;;;;17.40;68.50;;;;;;5015647;28;87389;-48
2023/05/28 07:43:35;;;;;;;;;;;17.40;68.40;;;;;;5012761;28;87907;-47
2023/05/28 07:46:01;;;;;;;;;;;17.40;68.40;;;;;;5014817;28;87448;-48
2023/05/28 07:48:26;;;;;;;;;;;17.50;68.50;;;;;;5013862;28;88164;-47
2023/05/28 07:50:52;;;;;;;;;;;17.50;68.60;;;;;;5013313;28;87156;-49
2023/05/28 07:53:18;;;;;;;;;;;17.50;68.50;;;;;;5011592;28;87987;-47
2023/05/28 07:55:44;;;;;;;;;;;17.50;68.70;;;;;;4995950;28;91144;-52
2023/05/28 07:58:11;;;;;;;;;;;17.50;68.70;;;;;;5011374;28;87407;-46
2023/05/28 08:00:37;;;;;;;;;;;17.50;68.70;;;;;;5014294;28;87439;-47
2023/05/28 08:03:03;;;;;;;;;;;17.50;68.80;;;;;;5014120;28;88180;-48
2023/05/28 08:05:29;;;;;;;;;;;17.50;68.70;;;;;;5014167;28;87048;-45
2023/05/28 08:07:54;;;;;;;;;;;17.50;68.80;;;;;;5012016;28;88390;-48
2023/05/28 08:10:20;;;;;;;;;;;17.50;68.80;;;;;;5011671;28;86355;-47
2023/05/28 08:12:45;;;;;;;;;;;17.50;68.60;;;;;;5012899;28;87827;-48
2023/05/28 08:15:11;;;;;;;;;;;17.50;68.80;;;;;;5011243;28;88261;-48
2023/05/28 08:17:36;;;;;;;;;;;17.50;68.70;;;;;;5014031;28;88090;-49
2023/05/28 08:20:03;;;;;;;;;;;17.50;68.80;;;;;;5011605;28;88477;-48
2023/05/28 08:22:29;;;;;;;;;;;17.50;68.90;;;;;;5013333;28;88026;-53
2023/05/28 08:24:54;;;;;;;;;;;17.50;68.80;;;;;;5015147;28;87087;-51
2023/05/28 08:27:20;;;;;;;;;;;17.50;68.80;;;;;;5011728;28;88163;-45
2023/05/28 08:29:46;;;;;;;;;;;17.50;68.70;;;;;;5014060;28;87124;-49
2023/05/28 08:32:11;;;;;;;;;;;17.50;68.80;;;;;;5013224;28;87162;-47
2023/05/28 08:34:38;;;;;;;;;;;17.50;68.90;;;;;;5012643;28;87446;-50
2023/05/28 08:37:03;;;;;;;;;;;17.50;68.90;;;;;;5011365;28;87108;-49
2023/05/28 08:39:30;;;;;;;;;;;17.50;68.90;;;;;;5013730;28;87152;-48
2023/05/28 08:41:55;;;;;;;;;;;17.50;68.90;;;;;;5010661;28;89049;-47
2023/05/28 08:44:21;;;;;;;;;;;17.50;68.80;;;;;;5012205;28;87146;-46
2023/05/28 08:46:46;;;;;;;;;;;17.50;68.80;;;;;;5015231;28;87110;-49
2023/05/28 08:49:14;;;;;;;;;;;17.50;68.90;;;;;;5012979;28;87086;-49
2023/05/28 08:51:41;;;;;;;;;;;17.50;68.90;;;;;;5012284;28;87428;-47
2023/05/28 08:54:08;;;;;;;;;;;17.40;69.60;;;;;;5010832;28;88177;-50
2023/05/28 08:56:34;;;;;;;;;;;17.50;68.90;;;;;;5013410;28;87132;-45
2023/05/28 08:59:00;;;;;;;;;;;17.50;68.80;;;;;;5011849;28;87425;-51
2023/05/28 09:01:26;;;;;;;;;;;17.50;68.70;;;;;;5013133;28;88090;-47
2023/05/28 09:03:52;;;;;;;;;;;17.50;68.50;;;;;;5010681;28;87313;-49
2023/05/28 09:06:19;;;;;;;;;;;17.50;68.50;;;;;;5012284;28;88071;-48
2023/05/28 09:08:45;;;;;;;;;;;17.50;68.70;;;;;;5014561;28;88039;-48
2023/05/28 09:11:14;;;;;;;;;;;17.50;68.50;;;;;;5011025;28;87250;-48
2023/05/28 09:13:40;;;;;;;;;;;17.50;68.50;;;;;;5010123;28;87213;-49
2023/05/28 09:16:06;;;;;;;;;;;17.50;68.70;;;;;;5011585;28;87222;-46
2023/05/28 09:18:32;;;;;;;;;;;17.50;68.70;;;;;;5012481;28;87575;-50
2023/05/28 09:21:00;;;;;;;;;;;17.50;69.30;;;;;;5010290;28;88191;-46
2023/05/28 09:23:28;;;;;;;;;;;17.50;68.70;;;;;;5012862;28;86410;-48
2023/05/28 09:26:00;;;;;;;;;;;17.50;68.60;;;;;;5012813;28;87183;-48
2023/05/28 09:28:27;;;;;;;;;;;17.50;68.80;;;;;;5013176;28;88162;-48
2023/05/28 09:30:55;;;;;;;;;;;17.50;68.70;;;;;;5011064;28;88611;-48
2023/05/28 09:33:20;;;;;;;;;;;17.50;68.60;;;;;;5011115;28;88174;-48
2023/05/28 09:35:56;;;;;;;;;;;17.60;68.70;;;;;;5013185;28;87149;-49
2023/05/28 09:38:24;;;;;;;;;;;17.60;68.70;;;;;;5013003;28;87498;-47
2023/05/28 09:40:49;;;;;;;;;;;17.60;68.70;;;;;;5010231;28;88092;-47
2023/05/28 09:43:15;;;;;;;;;;;17.60;68.60;;;;;;5009885;28;87117;-46
2023/05/28 09:45:40;;;;;;;;;;;17.60;69.40;;;;;;5012460;28;87432;-47
2023/05/28 09:48:06;;;;;;;;;;;17.60;69.60;;;;;;5008072;28;86552;-45
2023/05/28 09:50:31;;;;;;;;;;;17.60;70.00;;;;;;5011901;28;87232;-48
2023/05/28 09:52:58;;;;;;;;;;;17.60;70.00;;;;;;5000539;28;87248;-44
2023/05/28 09:55:27;;;;;;;;;;;17.70;69.60;;;;;;5001300;28;88002;-48
2023/05/28 09:58:11;;;;;;;;;;;17.70;69.60;;;;;;5001856;28;88287;-48
2023/05/28 10:00:46;;;;;;;;;;;17.80;69.40;;;;;;5004012;28;88213;-48
2023/05/28 10:03:12;;;;;;;;;;;17.70;69.90;;;;;;5014302;28;87005;-49
2023/05/28 10:05:40;;;;;;;;;;;17.70;70.50;;;;;;5025088;28;88739;-49
2023/05/28 10:08:07;;;;;;;;;;;17.70;70.30;;;;;;5024582;28;89348;-47
2023/05/28 10:10:33;;;;;;;;;;;17.80;70.30;;;;;;5025258;28;87033;-59
2023/05/28 10:12:59;;;;;;;;;;;17.90;69.90;;;;;;5027710;28;87240;-55
2023/05/28 10:15:25;;;;;;;;;;;18.00;69.60;;;;;;5025206;28;86942;-54
2023/05/28 10:17:51;;;;;;;;;;;18.00;70.00;;;;;;5024477;28;87409;-46
2023/05/28 10:20:18;;;;;;;;;;;18.00;70.40;;;;;;5024136;28;89360;-50
2023/05/28 10:22:44;;;;;;;;;;;18.00;69.80;;;;;;5025068;28;87112;-49
2023/05/28 10:25:10;;;;;;;;;;;18.10;70.00;;;;;;5025038;28;87476;-55
2023/05/28 10:27:37;;;;;;;;;;;18.10;70.50;;;;;;5024399;28;88160;-56
2023/05/28 10:30:03;;;;;;;;;;;18.10;70.10;;;;;;5024917;28;87069;-47
2023/05/28 10:32:29;;;;;;;;;;;18.10;69.90;;;;;;5024884;28;87289;-47
2023/05/28 10:35:02;;;;;;;;;;;18.20;70.70;;;;;;5026627;28;88315;-44
2023/05/28 10:37:27;;;;;;;;;;;18.10;70.90;;;;;;5015952;28;86639;-48
2023/05/28 10:39:53;;;;;;;;;;;18.10;70.80;;;;;;5013232;28;87371;-44
2023/05/28 10:42:20;;;;;;;;;;;18.10;70.50;;;;;;5014875;28;87139;-49
2023/05/28 10:45:12;;;;;;;;;;;18.20;70.30;;;;;;5012428;28;88056;-46
2023/05/28 10:47:42;;;;;;;;;;;18.20;70.10;;;;;;5012735;28;87999;-46
2023/05/28 10:50:07;;;;;;;;;;;18.20;70.10;;;;;;5013545;28;87542;-53
2023/05/28 10:52:33;;;;;;;;;;;18.20;70.10;;;;;;5012178;28;87351;-47
2023/05/28 10:55:02;;;;;;;;;;;18.20;69.90;;;;;;5013390;28;87351;-59
2023/05/28 10:57:39;;;;;;;;;;;18.20;69.80;;;;;;5018160;28;87155;-53
2023/05/28 11:00:09;;;;;;;;;;;18.20;70.00;;;;;;4995883;28;89943;-46
2023/05/28 11:02:35;;;;;;;;;;;18.20;70.50;;;;;;5012852;28;86331;-46
2023/05/28 11:05:02;;;;;;;;;;;18.20;70.70;;;;;;4997474;28;87132;-50
2023/05/28 11:07:29;;;;;;;;;;;18.20;70.80;;;;;;5011387;28;88014;-50
2023/05/28 11:09:56;;;;;;;;;;;18.30;70.70;;;;;;5012538;28;88411;-47
2023/05/28 11:12:22;;;;;;;;;;;18.30;70.70;;;;;;5011399;28;88516;-50
2023/05/28 11:14:48;;;;;;;;;;;18.30;70.40;;;;;;4992730;28;91144;-54
2023/05/28 11:17:14;;;;;;;;;;;18.30;70.40;;;;;;5014059;28;87062;-45
2023/05/28 11:19:43;;;;;;;;;;;18.30;70.40;;;;;;5015340;28;87437;-48
2023/05/28 11:22:09;;;;;;;;;;;18.30;70.90;;;;;;5012986;28;86952;-48
2023/05/28 11:24:53;;;;;;;;;;;18.30;70.70;;;;;;5011520;28;87513;-43
2023/05/28 11:27:20;;;;;;;;;;;18.40;70.30;;;;;;5011394;28;87800;-47
2023/05/28 11:29:46;;;;;;;;;;;18.40;70.50;;;;;;5013297;28;87013;-48
2023/05/28 11:32:11;;;;;;;;;;;18.40;70.30;;;;;;5013967;28;87263;-52
2023/05/28 11:34:38;;;;;;;;;;;18.40;70.30;;;;;;5013211;28;89304;-49
2023/05/28 11:37:05;;;;;;;;;;;18.40;69.50;;;;;;5011902;28;87157;-49
2023/05/28 11:39:30;;;;;;;;;;;18.30;69.10;;;;;;5015194;28;87526;-50
2023/05/28 11:41:56;;;;;;;;;;;18.30;69.10;;;;;;5014187;28;87131;-54
2023/05/28 11:44:22;;;;;;;;;;;18.30;69.10;;;;;;5011479;28;86999;-44
2023/05/28 11:46:53;;;;;;;;;;;18.40;69.20;;;;;;5012555;28;87109;-48
2023/05/28 11:49:18;;;;;;;;;;;18.30;69.30;;;;;;5012154;28;86989;-46
2023/05/28 11:51:44;;;;;;;;;;;18.30;69.40;;;;;;5013381;28;87494;-48
2023/05/28 11:54:09;;;;;;;;;;;18.20;69.40;;;;;;5012180;28;88014;-46
2023/05/28 11:56:35;;;;;;;;;;;18.30;69.50;;;;;;5011902;28;87179;-47
2023/05/28 11:59:01;;;;;;;;;;;18.30;69.40;;;;;;5013184;28;88298;-48
2023/05/28 12:01:31;;;;;;;;;;;18.30;69.40;;;;;;5014834;28;87365;-45
2023/05/28 12:04:03;;;;;;;;;;;18.30;69.20;;;;;;5012288;28;88037;-45
2023/05/28 12:06:30;;;;;;;;;;;18.30;69.70;;;;;;5011920;28;88217;-44
2023/05/28 12:09:01;;;;;;;;;;;18.30;69.20;;;;;;5011920;28;87306;-44
2023/05/28 12:11:27;;;;;;;;;;;18.30;69.20;;;;;;5011116;28;87230;-45
2023/05/28 12:13:52;;;;;;;;;;;18.30;69.00;;;;;;5011662;28;88163;-48
2023/05/28 12:16:18;;;;;;;;;;;18.30;69.20;;;;;;5013778;28;86941;-45
2023/05/28 12:18:43;;;;;;;;;;;18.20;69.20;;;;;;5011292;28;87113;-46
2023/05/28 12:21:10;;;;;;;;;;;18.20;69.10;;;;;;5014195;28;87706;-44
2023/05/28 12:23:35;;;;;;;;;;;18.20;69.20;;;;;;5012231;28;87880;-45
2023/05/28 12:26:01;;;;;;;;;;;18.20;69.20;;;;;;5013201;28;88140;-45
2023/05/28 12:28:26;;;;;;;;;;;18.20;69.10;;;;;;5011124;28;87032;-44
2023/05/28 12:30:54;;;;;;;;;;;18.20;69.10;;;;;;5011912;28;87558;-44
2023/05/28 12:33:20;;;;;;;;;;;18.20;69.10;;;;;;5015886;28;88210;-45
2023/05/28 12:35:46;;;;;;;;;;;18.20;69.80;;;;;;4994206;28;87296;-47
2023/05/28 12:38:12;;;;;;;;;;;18.30;70.30;;;;;;5011077;28;87386;-45
2023/05/28 12:40:37;;;;;;;;;;;18.30;70.20;;;;;;5011475;28;87488;-48
2023/05/28 12:43:03;;;;;;;;;;;18.40;70.00;;;;;;5012832;28;87220;-47
2023/05/28 12:45:29;;;;;;;;;;;18.40;69.30;;;;;;5013430;28;87377;-50
2023/05/28 12:47:55;;;;;;;;;;;18.30;68.50;;;;;;5010830;28;88044;-51
2023/05/28 12:50:22;;;;;;;;;;;18.30;69.00;;;;;;5011579;28;88388;-45
2023/05/28 12:52:48;;;;;;;;;;;18.40;69.20;;;;;;5009772;28;88158;-46
2023/05/28 12:55:13;;;;;;;;;;;18.40;69.10;;;;;;5011274;28;87710;-55
2023/05/28 12:57:39;;;;;;;;;;;18.50;69.00;;;;;;5012734;28;87568;-48
2023/05/28 13:00:06;;;;;;;;;;;18.40;69.10;;;;;;5009396;28;88111;-50
2023/05/28 13:02:31;;;;;;;;;;;18.40;68.80;;;;;;5010929;28;87169;-51
2023/05/28 13:04:57;;;;;;;;;;;18.30;68.60;;;;;;5012341;28;86678;-54
2023/05/28 13:07:22;;;;;;;;;;;18.50;68.70;;;;;;5012157;28;88210;-47
2023/05/28 13:09:48;;;;;;;;;;;18.50;69.10;;;;;;5010997;28;87452;-52
2023/05/28 13:12:13;;;;;;;;;;;18.50;68.70;;;;;;5010590;28;89160;-47
2023/05/28 13:14:39;;;;;;;;;;;18.50;68.60;;;;;;5008443;28;89877;-43
2023/05/28 13:17:04;;;;;;;;;;;18.50;68.50;;;;;;5011630;28;87492;-50
2023/05/28 13:19:30;;;;;;;;;;;18.50;68.30;;;;;;5010580;28;88157;-44
2023/05/28 13:21:56;;;;;;;;;;;18.50;68.30;;;;;;5011141;28;87638;-41
2023/05/28 13:24:21;;;;;;;;;;;18.50;67.90;;;;;;5009734;28;87396;-45
2023/05/28 13:26:47;;;;;;;;;;;18.50;68.20;;;;;;5011423;28;87959;-47
2023/05/28 13:29:13;;;;;;;;;;;18.60;68.60;;;;;;5015616;28;86321;-45
2023/05/28 13:31:38;;;;;;;;;;;18.50;68.20;;;;;;5008689;28;89959;-43
2023/05/28 13:34:04;;;;;;;;;;;18.50;68.60;;;;;;5010813;28;87223;-45
2023/05/28 13:36:30;;;;;;;;;;;18.50;68.40;;;;;;5013815;28;88446;-43
2023/05/28 13:38:56;;;;;;;;;;;18.50;68.30;;;;;;5012170;28;87156;-50
2023/05/28 13:41:24;;;;;;;;;;;18.50;68.40;;;;;;5015951;28;88200;-45
2023/05/28 13:43:53;;;;;;;;;;;18.50;68.00;;;;;;5014463;28;87115;-43
2023/05/28 13:46:19;;;;;;;;;;;18.60;67.80;;;;;;5012117;28;87552;-50
2023/05/28 13:48:45;;;;;;;;;;;18.50;67.60;;;;;;5018066;28;87148;-48
2023/05/28 13:51:11;;;;;;;;;;;18.60;67.40;;;;;;5013802;28;88113;-50
2023/05/28 13:53:37;;;;;;;;;;;18.60;67.20;;;;;;5013082;28;86420;-44
2023/05/28 13:56:03;;;;;;;;;;;18.60;67.40;;;;;;5016218;28;87058;-51
2023/05/28 13:58:29;;;;;;;;;;;18.60;67.50;;;;;;5012941;28;87151;-42
2023/05/28 14:00:54;;;;;;;;;;;18.60;67.50;;;;;;5014451;28;88578;-42
2023/05/28 14:03:20;;;;;;;;;;;18.60;67.20;;;;;;5012379;28;88824;-40
2023/05/28 14:05:46;;;;;;;;;;;18.60;67.30;;;;;;5014512;28;88093;-44
2023/05/28 14:08:12;;;;;;;;;;;18.60;67.60;;;;;;5014095;28;87471;-47
2023/05/28 14:10:37;;;;;;;;;;;18.60;67.80;;;;;;5015787;28;87744;-46